sensor_id;sensor_type;location;lat;lon;timestamp;temperature;humidity
61021;DHT22;66055;43.496;3.710;2022-12-20T00:00:10;13.50;88.30
61021;DHT22;66055;43.496;3.710;2022-12-20T00:02:36;13.50;88.10
61021;DHT22;66055;43.496;3.710;2022-12-20T00:05:02;13.60;87.70
61021;DHT22;66055;43.496;3.710;2022-12-20T00:07:28;13.60;87.10
61021;DHT22;66055;43.496;3.710;2022-12-20T00:09:53;13.60;87.20
61021;DHT22;66055;43.496;3.710;2022-12-20T00:12:19;13.60;87.80
61021;DHT22;66055;43.496;3.710;2022-12-20T00:14:44;13.50;88.10
61021;DHT22;66055;43.496;3.710;2022-12-20T00:17:10;13.50;88.10
61021;DHT22;66055;43.496;3.710;2022-12-20T00:19:36;13.50;88.20
61021;DHT22;66055;43.496;3.710;2022-12-20T00:22:01;13.50;88.20
61021;DHT22;66055;43.496;3.710;2022-12-20T00:24:27;13.60;88.10
61021;DHT22;66055;43.496;3.710;2022-12-20T00:26:53;13.60;88.00
61021;DHT22;66055;43.496;3.710;2022-12-20T00:29:18;13.50;88.30
61021;DHT22;66055;43.496;3.710;2022-12-20T00:31:44;13.50;88.40
61021;DHT22;66055;43.496;3.710;2022-12-20T00:34:09;13.60;88.30
61021;DHT22;66055;43.496;3.710;2022-12-20T00:36:35;13.60;88.20
61021;DHT22;66055;43.496;3.710;2022-12-20T00:39:01;13.60;88.20
61021;DHT22;66055;43.496;3.710;2022-12-20T00:41:29;13.60;88.10
61021;DHT22;66055;43.496;3.710;2022-12-20T00:43:55;13.60;88.00
61021;DHT22;66055;43.496;3.710;2022-12-20T00:46:20;13.60;87.90
61021;DHT22;66055;43.496;3.710;2022-12-20T00:48:48;13.60;88.30
61021;DHT22;66055;43.496;3.710;2022-12-20T00:51:15;13.60;88.60
61021;DHT22;66055;43.496;3.710;2022-12-20T00:53:41;13.60;88.90
61021;DHT22;66055;43.496;3.710;2022-12-20T00:56:08;13.60;89.10
61021;DHT22;66055;43.496;3.710;2022-12-20T00:58:36;13.60;89.10
61021;DHT22;66055;43.496;3.710;2022-12-20T01:01:03;13.70;89.00
61021;DHT22;66055;43.496;3.710;2022-12-20T01:03:29;13.70;89.00
61021;DHT22;66055;43.496;3.710;2022-12-20T01:05:58;13.70;89.00
61021;DHT22;66055;43.496;3.710;2022-12-20T01:08:25;13.70;89.10
61021;DHT22;66055;43.496;3.710;2022-12-20T01:11:12;13.70;89.30
61021;DHT22;66055;43.496;3.710;2022-12-20T01:13:40;13.70;89.40
61021;DHT22;66055;43.496;3.710;2022-12-20T01:16:13;13.70;89.40
61021;DHT22;66055;43.496;3.710;2022-12-20T01:18:39;13.70;89.50
61021;DHT22;66055;43.496;3.710;2022-12-20T01:21:08;13.70;89.60
61021;DHT22;66055;43.496;3.710;2022-12-20T01:23:35;13.70;89.60
61021;DHT22;66055;43.496;3.710;2022-12-20T01:26:02;13.70;89.50
61021;DHT22;66055;43.496;3.710;2022-12-20T01:28:30;13.70;89.50
61021;DHT22;66055;43.496;3.710;2022-12-20T01:30:56;13.70;89.60
61021;DHT22;66055;43.496;3.710;2022-12-20T01:33:22;13.60;89.60
61021;DHT22;66055;43.496;3.710;2022-12-20T01:35:59;13.60;89.70
61021;DHT22;66055;43.496;3.710;2022-12-20T01:38:25;13.60;89.70
61021;DHT22;66055;43.496;3.710;2022-12-20T01:40:52;13.60;89.80
61021;DHT22;66055;43.496;3.710;2022-12-20T01:43:18;13.70;89.80
61021;DHT22;66055;43.496;3.710;2022-12-20T01:45:44;13.60;89.90
61021;DHT22;66055;43.496;3.710;2022-12-20T01:48:16;13.70;90.00
61021;DHT22;66055;43.496;3.710;2022-12-20T01:50:45;13.70;90.00
61021;DHT22;66055;43.496;3.710;2022-12-20T01:53:13;13.70;89.90
61021;DHT22;66055;43.496;3.710;2022-12-20T01:55:39;13.80;89.80
61021;DHT22;66055;43.496;3.710;2022-12-20T01:58:06;13.80;89.80
61021;DHT22;66055;43.496;3.710;2022-12-20T02:00:33;13.80;89.80
61021;DHT22;66055;43.496;3.710;2022-12-20T02:02:59;13.80;89.70
61021;DHT22;66055;43.496;3.710;2022-12-20T02:05:26;13.80;89.60
61021;DHT22;66055;43.496;3.710;2022-12-20T02:07:52;13.70;89.80
61021;DHT22;66055;43.496;3.710;2022-12-20T02:10:21;13.70;89.90
61021;DHT22;66055;43.496;3.710;2022-12-20T02:12:47;13.70;89.90
61021;DHT22;66055;43.496;3.710;2022-12-20T02:15:34;13.70;90.00
61021;DHT22;66055;43.496;3.710;2022-12-20T02:32:21;13.70;90.10
61021;DHT22;66055;43.496;3.710;2022-12-20T02:34:49;13.70;90.10
61021;DHT22;66055;43.496;3.710;2022-12-20T02:37:15;13.70;90.10
61021;DHT22;66055;43.496;3.710;2022-12-20T02:39:41;13.70;90.10
61021;DHT22;66055;43.496;3.710;2022-12-20T02:42:11;13.70;90.10
61021;DHT22;66055;43.496;3.710;2022-12-20T02:44:41;13.80;89.90
61021;DHT22;66055;43.496;3.710;2022-12-20T02:47:42;13.80;89.80
61021;DHT22;66055;43.496;3.710;2022-12-20T02:50:10;13.70;89.70
61021;DHT22;66055;43.496;3.710;2022-12-20T02:52:37;13.70;89.70
61021;DHT22;66055;43.496;3.710;2022-12-20T02:55:04;13.70;89.80
61021;DHT22;66055;43.496;3.710;2022-12-20T02:57:42;13.60;89.80
61021;DHT22;66055;43.496;3.710;2022-12-20T03:00:15;13.60;89.90
61021;DHT22;66055;43.496;3.710;2022-12-20T03:02:43;13.70;90.00
61021;DHT22;66055;43.496;3.710;2022-12-20T03:05:28;13.60;90.00
61021;DHT22;66055;43.496;3.710;2022-12-20T03:07:53;13.60;90.00
61021;DHT22;66055;43.496;3.710;2022-12-20T03:10:21;13.60;90.00
61021;DHT22;66055;43.496;3.710;2022-12-20T03:12:47;13.70;90.00
61021;DHT22;66055;43.496;3.710;2022-12-20T03:15:12;13.70;90.00
61021;DHT22;66055;43.496;3.710;2022-12-20T03:17:38;13.70;90.00
61021;DHT22;66055;43.496;3.710;2022-12-20T03:20:05;13.70;90.00
61021;DHT22;66055;43.496;3.710;2022-12-20T03:22:32;13.70;90.10
61021;DHT22;66055;43.496;3.710;2022-12-20T03:24:58;13.70;90.00
61021;DHT22;66055;43.496;3.710;2022-12-20T03:27:24;13.70;90.10
61021;DHT22;66055;43.496;3.710;2022-12-20T03:29:53;13.70;90.10
61021;DHT22;66055;43.496;3.710;2022-12-20T03:32:18;13.70;90.10
61021;DHT22;66055;43.496;3.710;2022-12-20T03:34:44;13.70;90.10
61021;DHT22;66055;43.496;3.710;2022-12-20T03:37:09;13.80;90.20
61021;DHT22;66055;43.496;3.710;2022-12-20T03:39:35;13.70;90.20
61021;DHT22;66055;43.496;3.710;2022-12-20T03:42:02;13.70;90.20
61021;DHT22;66055;43.496;3.710;2022-12-20T03:44:28;13.70;90.20
61021;DHT22;66055;43.496;3.710;2022-12-20T03:46:53;13.70;90.20
61021;DHT22;66055;43.496;3.710;2022-12-20T03:49:19;13.70;90.10
61021;DHT22;66055;43.496;3.710;2022-12-20T03:51:45;13.70;90.10
61021;DHT22;66055;43.496;3.710;2022-12-20T03:54:10;13.70;90.10
61021;DHT22;66055;43.496;3.710;2022-12-20T03:56:36;13.80;90.10
61021;DHT22;66055;43.496;3.710;2022-12-20T03:59:01;13.80;90.10
61021;DHT22;66055;43.496;3.710;2022-12-20T04:01:28;13.70;90.10
61021;DHT22;66055;43.496;3.710;2022-12-20T04:03:54;13.70;90.10
61021;DHT22;66055;43.496;3.710;2022-12-20T04:06:21;13.70;90.10
61021;DHT22;66055;43.496;3.710;2022-12-20T04:08:48;13.70;90.20
61021;DHT22;66055;43.496;3.710;2022-12-20T04:11:14;13.70;90.20
61021;DHT22;66055;43.496;3.710;2022-12-20T04:13:47;13.70;90.00
61021;DHT22;66055;43.496;3.710;2022-12-20T04:16:15;13.70;90.00
61021;DHT22;66055;43.496;3.710;2022-12-20T04:18:41;13.70;89.90
61021;DHT22;66055;43.496;3.710;2022-12-20T04:21:07;13.70;90.00
61021;DHT22;66055;43.496;3.710;2022-12-20T04:23:35;13.70;90.00
61021;DHT22;66055;43.496;3.710;2022-12-20T04:26:02;13.70;90.10
61021;DHT22;66055;43.496;3.710;2022-12-20T04:28:28;13.80;90.10
61021;DHT22;66055;43.496;3.710;2022-12-20T04:30:54;13.80;90.10
61021;DHT22;66055;43.496;3.710;2022-12-20T04:33:20;13.80;89.90
61021;DHT22;66055;43.496;3.710;2022-12-20T04:35:46;13.70;89.90
61021;DHT22;66055;43.496;3.710;2022-12-20T04:38:11;13.70;89.90
61021;DHT22;66055;43.496;3.710;2022-12-20T04:40:37;13.80;89.90
61021;DHT22;66055;43.496;3.710;2022-12-20T04:43:02;13.80;89.90
61021;DHT22;66055;43.496;3.710;2022-12-20T04:45:28;13.80;90.00
61021;DHT22;66055;43.496;3.710;2022-12-20T04:47:54;13.80;89.90
61021;DHT22;66055;43.496;3.710;2022-12-20T04:50:19;13.80;89.90
61021;DHT22;66055;43.496;3.710;2022-12-20T04:52:45;13.80;89.90
61021;DHT22;66055;43.496;3.710;2022-12-20T04:55:35;13.80;89.80
61021;DHT22;66055;43.496;3.710;2022-12-20T04:58:00;13.90;89.80
61021;DHT22;66055;43.496;3.710;2022-12-20T05:00:26;13.90;89.80
61021;DHT22;66055;43.496;3.710;2022-12-20T05:02:52;13.90;89.60
61021;DHT22;66055;43.496;3.710;2022-12-20T05:05:17;13.90;89.50
61021;DHT22;66055;43.496;3.710;2022-12-20T05:07:43;13.90;89.50
61021;DHT22;66055;43.496;3.710;2022-12-20T05:10:09;13.80;89.50
61021;DHT22;66055;43.496;3.710;2022-12-20T05:12:34;13.80;89.60
61021;DHT22;66055;43.496;3.710;2022-12-20T05:15:00;13.80;89.60
61021;DHT22;66055;43.496;3.710;2022-12-20T05:17:25;13.80;89.60
61021;DHT22;66055;43.496;3.710;2022-12-20T05:19:51;13.80;89.60
61021;DHT22;66055;43.496;3.710;2022-12-20T05:22:17;13.80;89.60
61021;DHT22;66055;43.496;3.710;2022-12-20T05:25:01;13.80;89.70
61021;DHT22;66055;43.496;3.710;2022-12-20T05:27:45;13.80;89.80
61021;DHT22;66055;43.496;3.710;2022-12-20T05:30:10;13.80;89.80
61021;DHT22;66055;43.496;3.710;2022-12-20T05:32:36;13.80;89.90
61021;DHT22;66055;43.496;3.710;2022-12-20T05:35:02;13.90;89.80
61021;DHT22;66055;43.496;3.710;2022-12-20T05:37:28;13.90;89.70
61021;DHT22;66055;43.496;3.710;2022-12-20T05:39:53;13.80;89.70
61021;DHT22;66055;43.496;3.710;2022-12-20T05:42:20;13.80;89.70
61021;DHT22;66055;43.496;3.710;2022-12-20T05:44:46;13.80;89.70
61021;DHT22;66055;43.496;3.710;2022-12-20T05:47:11;13.80;89.80
61021;DHT22;66055;43.496;3.710;2022-12-20T05:49:37;13.80;89.90
61021;DHT22;66055;43.496;3.710;2022-12-20T05:52:02;13.80;89.90
61021;DHT22;66055;43.496;3.710;2022-12-20T05:54:28;13.80;90.00
61021;DHT22;66055;43.496;3.710;2022-12-20T05:56:54;13.80;90.00
61021;DHT22;66055;43.496;3.710;2022-12-20T05:59:19;13.80;90.00
61021;DHT22;66055;43.496;3.710;2022-12-20T06:01:45;13.80;89.90
61021;DHT22;66055;43.496;3.710;2022-12-20T06:04:11;13.80;90.00
61021;DHT22;66055;43.496;3.710;2022-12-20T06:06:36;13.80;89.90
61021;DHT22;66055;43.496;3.710;2022-12-20T06:09:02;13.80;90.00
61021;DHT22;66055;43.496;3.710;2022-12-20T06:11:27;13.80;90.00
61021;DHT22;66055;43.496;3.710;2022-12-20T06:13:53;13.80;90.00
61021;DHT22;66055;43.496;3.710;2022-12-20T06:16:19;13.80;89.90
61021;DHT22;66055;43.496;3.710;2022-12-20T06:18:46;13.80;89.80
61021;DHT22;66055;43.496;3.710;2022-12-20T06:21:11;13.80;89.90
61021;DHT22;66055;43.496;3.710;2022-12-20T06:23:37;13.80;89.90
61021;DHT22;66055;43.496;3.710;2022-12-20T06:26:03;13.80;89.80
61021;DHT22;66055;43.496;3.710;2022-12-20T06:28:29;13.80;89.90
61021;DHT22;66055;43.496;3.710;2022-12-20T06:30:56;13.80;90.00
61021;DHT22;66055;43.496;3.710;2022-12-20T06:33:22;13.70;90.00
61021;DHT22;66055;43.496;3.710;2022-12-20T06:35:49;13.70;90.10
61021;DHT22;66055;43.496;3.710;2022-12-20T06:38:15;13.70;90.10
61021;DHT22;66055;43.496;3.710;2022-12-20T06:40:40;13.70;90.10
61021;DHT22;66055;43.496;3.710;2022-12-20T06:43:07;13.70;90.00
61021;DHT22;66055;43.496;3.710;2022-12-20T06:45:33;13.70;90.00
61021;DHT22;66055;43.496;3.710;2022-12-20T06:47:58;13.70;90.00
61021;DHT22;66055;43.496;3.710;2022-12-20T06:50:24;13.70;90.10
61021;DHT22;66055;43.496;3.710;2022-12-20T06:52:50;13.70;90.10
61021;DHT22;66055;43.496;3.710;2022-12-20T06:55:15;13.70;90.10
61021;DHT22;66055;43.496;3.710;2022-12-20T06:57:41;13.70;90.10
61021;DHT22;66055;43.496;3.710;2022-12-20T07:00:07;13.70;90.10
61021;DHT22;66055;43.496;3.710;2022-12-20T07:02:37;13.80;90.00
61021;DHT22;66055;43.496;3.710;2022-12-20T07:05:03;13.80;90.00
61021;DHT22;66055;43.496;3.710;2022-12-20T07:07:29;13.80;90.00
61021;DHT22;66055;43.496;3.710;2022-12-20T07:09:55;13.80;89.80
61021;DHT22;66055;43.496;3.710;2022-12-20T07:12:20;13.90;89.70
61021;DHT22;66055;43.496;3.710;2022-12-20T07:14:46;13.90;89.60
61021;DHT22;66055;43.496;3.710;2022-12-20T07:17:12;13.90;89.60
61021;DHT22;66055;43.496;3.710;2022-12-20T07:19:38;13.90;89.70
61021;DHT22;66055;43.496;3.710;2022-12-20T07:22:06;13.90;89.70
61021;DHT22;66055;43.496;3.710;2022-12-20T07:24:32;13.90;89.60
61021;DHT22;66055;43.496;3.710;2022-12-20T07:26:58;13.90;89.60
61021;DHT22;66055;43.496;3.710;2022-12-20T07:29:24;14.00;89.60
61021;DHT22;66055;43.496;3.710;2022-12-20T07:31:50;14.00;89.50
61021;DHT22;66055;43.496;3.710;2022-12-20T07:34:16;14.00;89.50
61021;DHT22;66055;43.496;3.710;2022-12-20T07:36:42;14.00;89.60
61021;DHT22;66055;43.496;3.710;2022-12-20T07:39:07;14.00;89.60
61021;DHT22;66055;43.496;3.710;2022-12-20T07:41:33;14.00;89.60
61021;DHT22;66055;43.496;3.710;2022-12-20T07:43:59;13.90;89.60
61021;DHT22;66055;43.496;3.710;2022-12-20T07:46:25;14.00;89.50
61021;DHT22;66055;43.496;3.710;2022-12-20T07:48:51;14.00;89.40
61021;DHT22;66055;43.496;3.710;2022-12-20T07:51:20;14.00;89.30
61021;DHT22;66055;43.496;3.710;2022-12-20T07:53:56;14.00;89.30
61021;DHT22;66055;43.496;3.710;2022-12-20T07:56:23;14.00;89.30
61021;DHT22;66055;43.496;3.710;2022-12-20T07:58:49;14.00;89.30
61021;DHT22;66055;43.496;3.710;2022-12-20T08:01:16;14.00;89.30
61021;DHT22;66055;43.496;3.710;2022-12-20T08:03:48;14.00;89.30
61021;DHT22;66055;43.496;3.710;2022-12-20T08:06:16;14.00;89.20
61021;DHT22;66055;43.496;3.710;2022-12-20T08:08:47;14.00;89.30
61021;DHT22;66055;43.496;3.710;2022-12-20T08:11:14;14.10;89.10
61021;DHT22;66055;43.496;3.710;2022-12-20T08:13:40;14.10;89.10
61021;DHT22;66055;43.496;3.710;2022-12-20T08:16:06;14.10;89.20
61021;DHT22;66055;43.496;3.710;2022-12-20T08:18:32;14.10;89.30
61021;DHT22;66055;43.496;3.710;2022-12-20T08:20:57;14.10;89.30
61021;DHT22;66055;43.496;3.710;2022-12-20T08:23:23;14.10;89.40
61021;DHT22;66055;43.496;3.710;2022-12-20T08:25:49;14.10;89.50
61021;DHT22;66055;43.496;3.710;2022-12-20T08:28:15;14.10;89.40
61021;DHT22;66055;43.496;3.710;2022-12-20T08:30:40;14.10;89.30
61021;DHT22;66055;43.496;3.710;2022-12-20T08:33:06;14.10;89.30
61021;DHT22;66055;43.496;3.710;2022-12-20T08:35:32;14.10;89.30
61021;DHT22;66055;43.496;3.710;2022-12-20T08:37:58;14.10;89.30
61021;DHT22;66055;43.496;3.710;2022-12-20T08:40:23;14.20;89.20
61021;DHT22;66055;43.496;3.710;2022-12-20T08:42:49;14.20;89.10
61021;DHT22;66055;43.496;3.710;2022-12-20T08:45:15;14.30;88.80
61021;DHT22;66055;43.496;3.710;2022-12-20T08:47:41;14.30;88.80
61021;DHT22;66055;43.496;3.710;2022-12-20T08:50:06;14.30;88.90
61021;DHT22;66055;43.496;3.710;2022-12-20T08:52:32;14.30;88.80
61021;DHT22;66055;43.496;3.710;2022-12-20T08:54:58;14.30;88.80
61021;DHT22;66055;43.496;3.710;2022-12-20T08:57:23;14.40;88.80
61021;DHT22;66055;43.496;3.710;2022-12-20T08:59:49;14.40;88.80
61021;DHT22;66055;43.496;3.710;2022-12-20T09:02:14;14.50;88.70
61021;DHT22;66055;43.496;3.710;2022-12-20T09:04:40;14.60;88.20
61021;DHT22;66055;43.496;3.710;2022-12-20T09:07:06;14.60;87.90
61021;DHT22;66055;43.496;3.710;2022-12-20T09:09:32;14.70;87.80
61021;DHT22;66055;43.496;3.710;2022-12-20T09:11:57;14.70;87.40
61021;DHT22;66055;43.496;3.710;2022-12-20T09:14:23;14.60;87.70
61021;DHT22;66055;43.496;3.710;2022-12-20T09:16:49;14.60;87.90
61021;DHT22;66055;43.496;3.710;2022-12-20T09:19:14;14.60;87.90
61021;DHT22;66055;43.496;3.710;2022-12-20T09:21:40;14.60;88.00
61021;DHT22;66055;43.496;3.710;2022-12-20T09:24:05;14.70;87.70
61021;DHT22;66055;43.496;3.710;2022-12-20T09:26:32;14.70;87.40
61021;DHT22;66055;43.496;3.710;2022-12-20T09:28:59;14.70;87.40
61021;DHT22;66055;43.496;3.710;2022-12-20T09:31:26;14.70;87.30
61021;DHT22;66055;43.496;3.710;2022-12-20T09:33:54;14.70;87.40
61021;DHT22;66055;43.496;3.710;2022-12-20T09:36:21;14.70;87.50
61021;DHT22;66055;43.496;3.710;2022-12-20T09:38:47;14.70;87.30
61021;DHT22;66055;43.496;3.710;2022-12-20T09:43:49;14.70;87.30
61021;DHT22;66055;43.496;3.710;2022-12-20T09:46:15;14.80;87.30
61021;DHT22;66055;43.496;3.710;2022-12-20T09:48:42;14.80;87.10
61021;DHT22;66055;43.496;3.710;2022-12-20T09:59:29;14.90;87.10
61021;DHT22;66055;43.496;3.710;2022-12-20T10:01:58;14.90;87.10
61021;DHT22;66055;43.496;3.710;2022-12-20T10:14:48;15.20;86.50
61021;DHT22;66055;43.496;3.710;2022-12-20T10:22:44;15.20;87.00
61021;DHT22;66055;43.496;3.710;2022-12-20T10:25:21;15.20;86.70
61021;DHT22;66055;43.496;3.710;2022-12-20T10:27:52;15.30;86.50
61021;DHT22;66055;43.496;3.710;2022-12-20T10:30:23;15.30;85.90
61021;DHT22;66055;43.496;3.710;2022-12-20T10:32:52;15.30;85.80
61021;DHT22;66055;43.496;3.710;2022-12-20T10:40:28;15.50;86.20
61021;DHT22;66055;43.496;3.710;2022-12-20T10:42:54;15.50;85.20
61021;DHT22;66055;43.496;3.710;2022-12-20T10:47:45;15.60;85.20
61021;DHT22;66055;43.496;3.710;2022-12-20T10:50:18;15.60;84.80
61021;DHT22;66055;43.496;3.710;2022-12-20T10:52:45;15.60;85.20
61021;DHT22;66055;43.496;3.710;2022-12-20T10:55:36;15.60;85.20
61021;DHT22;66055;43.496;3.710;2022-12-20T10:58:04;15.60;84.80
61021;DHT22;66055;43.496;3.710;2022-12-20T11:00:31;15.60;85.30
61021;DHT22;66055;43.496;3.710;2022-12-20T11:03:18;15.60;85.50
61021;DHT22;66055;43.496;3.710;2022-12-20T11:05:54;15.70;84.90
61021;DHT22;66055;43.496;3.710;2022-12-20T11:08:21;15.70;84.30
61021;DHT22;66055;43.496;3.710;2022-12-20T11:10:49;15.70;84.50
61021;DHT22;66055;43.496;3.710;2022-12-20T11:13:24;15.60;84.40
61021;DHT22;66055;43.496;3.710;2022-12-20T11:15:55;15.60;84.10
61021;DHT22;66055;43.496;3.710;2022-12-20T11:18:47;15.60;84.80
61021;DHT22;66055;43.496;3.710;2022-12-20T11:24:11;15.50;84.60
61021;DHT22;66055;43.496;3.710;2022-12-20T11:29:09;15.50;84.80
61021;DHT22;66055;43.496;3.710;2022-12-20T11:37:14;15.40;85.40
61021;DHT22;66055;43.496;3.710;2022-12-20T11:53:12;15.30;85.70
61021;DHT22;66055;43.496;3.710;2022-12-20T11:55:42;15.30;86.00
61021;DHT22;66055;43.496;3.710;2022-12-20T12:01:07;15.30;85.80
61021;DHT22;66055;43.496;3.710;2022-12-20T12:03:36;15.30;85.60
61021;DHT22;66055;43.496;3.710;2022-12-20T12:06:10;15.30;86.00
61021;DHT22;66055;43.496;3.710;2022-12-20T12:08:44;15.30;86.30
61021;DHT22;66055;43.496;3.710;2022-12-20T12:11:24;15.40;86.30
61021;DHT22;66055;43.496;3.710;2022-12-20T12:13:52;15.30;85.90
61021;DHT22;66055;43.496;3.710;2022-12-20T12:16:39;15.40;86.10
61021;DHT22;66055;43.496;3.710;2022-12-20T12:19:10;15.40;85.70
61021;DHT22;66055;43.496;3.710;2022-12-20T12:21:49;15.50;85.40
61021;DHT22;66055;43.496;3.710;2022-12-20T12:24:34;15.50;84.90
61021;DHT22;66055;43.496;3.710;2022-12-20T12:27:04;15.50;84.30
61021;DHT22;66055;43.496;3.710;2022-12-20T12:29:32;15.50;84.60
61021;DHT22;66055;43.496;3.710;2022-12-20T12:32:23;15.50;85.10
61021;DHT22;66055;43.496;3.710;2022-12-20T12:46:21;15.40;85.40
61021;DHT22;66055;43.496;3.710;2022-12-20T12:51:29;15.40;85.30
61021;DHT22;66055;43.496;3.710;2022-12-20T12:54:17;15.40;85.30
61021;DHT22;66055;43.496;3.710;2022-12-20T12:56:46;15.50;85.60
61021;DHT22;66055;43.496;3.710;2022-12-20T13:04:26;15.40;85.50
61021;DHT22;66055;43.496;3.710;2022-12-20T13:06:59;15.40;85.90
61021;DHT22;66055;43.496;3.710;2022-12-20T13:11:51;15.30;85.60
61021;DHT22;66055;43.496;3.710;2022-12-20T13:16:46;15.30;85.20
61021;DHT22;66055;43.496;3.710;2022-12-20T13:19:14;15.30;85.50
61021;DHT22;66055;43.496;3.710;2022-12-20T13:22:37;15.30;85.60
61021;DHT22;66055;43.496;3.710;2022-12-20T13:24:58;15.30;85.60
61021;DHT22;66055;43.496;3.710;2022-12-20T13:27:57;15.30;85.90
61021;DHT22;66055;43.496;3.710;2022-12-20T13:43:47;15.20;85.80
61021;DHT22;66055;43.496;3.710;2022-12-20T13:46:20;15.20;85.20
61021;DHT22;66055;43.496;3.710;2022-12-20T13:51:23;15.20;86.00
61021;DHT22;66055;43.496;3.710;2022-12-20T13:53:55;15.20;85.70
61021;DHT22;66055;43.496;3.710;2022-12-20T13:56:47;15.20;84.80
61021;DHT22;66055;43.496;3.710;2022-12-20T13:59:34;15.20;85.50
61021;DHT22;66055;43.496;3.710;2022-12-20T14:02:03;15.20;85.10
61021;DHT22;66055;43.496;3.710;2022-12-20T14:04:40;15.10;86.00
61021;DHT22;66055;43.496;3.710;2022-12-20T14:07:09;15.10;85.60
61021;DHT22;66055;43.496;3.710;2022-12-20T14:09:38;15.10;85.90
61021;DHT22;66055;43.496;3.710;2022-12-20T14:12:15;15.10;86.20
61021;DHT22;66055;43.496;3.710;2022-12-20T14:14:46;15.10;86.30
61021;DHT22;66055;43.496;3.710;2022-12-20T14:17:31;15.00;86.00
61021;DHT22;66055;43.496;3.710;2022-12-20T14:20:13;15.00;86.20
61021;DHT22;66055;43.496;3.710;2022-12-20T14:25:17;14.90;86.50
61021;DHT22;66055;43.496;3.710;2022-12-20T14:27:46;14.90;86.40
61021;DHT22;66055;43.496;3.710;2022-12-20T14:30:26;14.90;86.80
61021;DHT22;66055;43.496;3.710;2022-12-20T14:32:54;14.90;87.10
61021;DHT22;66055;43.496;3.710;2022-12-20T14:35:21;14.90;86.70
61021;DHT22;66055;43.496;3.710;2022-12-20T14:38:19;14.90;86.30
61021;DHT22;66055;43.496;3.710;2022-12-20T14:40:45;14.90;86.70
61021;DHT22;66055;43.496;3.710;2022-12-20T14:43:14;14.90;86.90
61021;DHT22;66055;43.496;3.710;2022-12-20T14:45:40;14.90;86.70
61021;DHT22;66055;43.496;3.710;2022-12-20T14:48:06;14.80;86.50
61021;DHT22;66055;43.496;3.710;2022-12-20T14:50:39;14.80;86.60
61021;DHT22;66055;43.496;3.710;2022-12-20T14:53:19;14.80;86.20
61021;DHT22;66055;43.496;3.710;2022-12-20T14:55:47;14.80;86.70
61021;DHT22;66055;43.496;3.710;2022-12-20T14:58:23;14.80;86.70
61021;DHT22;66055;43.496;3.710;2022-12-20T15:00:58;14.70;87.30
61021;DHT22;66055;43.496;3.710;2022-12-20T15:03:25;14.70;87.40
61021;DHT22;66055;43.496;3.710;2022-12-20T15:06:00;14.70;87.20
61021;DHT22;66055;43.496;3.710;2022-12-20T15:08:28;14.70;87.20
61021;DHT22;66055;43.496;3.710;2022-12-20T15:11:17;14.70;87.10
61021;DHT22;66055;43.496;3.710;2022-12-20T15:13:46;14.70;87.30
61021;DHT22;66055;43.496;3.710;2022-12-20T15:16:28;14.70;87.10
61021;DHT22;66055;43.496;3.710;2022-12-20T15:18:59;14.70;87.00
61021;DHT22;66055;43.496;3.710;2022-12-20T15:21:40;14.70;86.90
61021;DHT22;66055;43.496;3.710;2022-12-20T15:24:14;14.70;87.30
61021;DHT22;66055;43.496;3.710;2022-12-20T15:26:41;14.70;87.10
61021;DHT22;66055;43.496;3.710;2022-12-20T15:29:11;14.70;87.20
61021;DHT22;66055;43.496;3.710;2022-12-20T15:31:39;14.70;87.50
61021;DHT22;66055;43.496;3.710;2022-12-20T15:34:18;14.60;87.60
61021;DHT22;66055;43.496;3.710;2022-12-20T15:36:46;14.70;87.80
61021;DHT22;66055;43.496;3.710;2022-12-20T15:39:12;14.60;87.80
61021;DHT22;66055;43.496;3.710;2022-12-20T15:41:40;14.60;87.70
61021;DHT22;66055;43.496;3.710;2022-12-20T15:44:12;14.60;87.50
61021;DHT22;66055;43.496;3.710;2022-12-20T15:46:38;14.60;87.60
61021;DHT22;66055;43.496;3.710;2022-12-20T15:49:04;14.60;87.90
61021;DHT22;66055;43.496;3.710;2022-12-20T15:51:33;14.60;87.70
61021;DHT22;66055;43.496;3.710;2022-12-20T15:54:01;14.60;87.60
61021;DHT22;66055;43.496;3.710;2022-12-20T15:56:27;14.60;87.80
61021;DHT22;66055;43.496;3.710;2022-12-20T15:58:53;14.60;88.00
61021;DHT22;66055;43.496;3.710;2022-12-20T16:01:20;14.60;88.10
61021;DHT22;66055;43.496;3.710;2022-12-20T16:03:46;14.60;88.50
61021;DHT22;66055;43.496;3.710;2022-12-20T16:06:12;14.60;88.50
61021;DHT22;66055;43.496;3.710;2022-12-20T16:08:39;14.60;87.80
61021;DHT22;66055;43.496;3.710;2022-12-20T16:11:09;14.60;88.00
61021;DHT22;66055;43.496;3.710;2022-12-20T16:13:42;14.60;87.70
61021;DHT22;66055;43.496;3.710;2022-12-20T16:16:26;14.60;88.00
61021;DHT22;66055;43.496;3.710;2022-12-20T16:18:52;14.50;88.50
61021;DHT22;66055;43.496;3.710;2022-12-20T16:21:32;14.50;88.30
61021;DHT22;66055;43.496;3.710;2022-12-20T16:23:59;14.50;88.10
61021;DHT22;66055;43.496;3.710;2022-12-20T16:26:25;14.50;88.20
61021;DHT22;66055;43.496;3.710;2022-12-20T16:28:52;14.60;88.30
61021;DHT22;66055;43.496;3.710;2022-12-20T16:34:00;14.50;88.30
61021;DHT22;66055;43.496;3.710;2022-12-20T16:36:27;14.50;88.40
61021;DHT22;66055;43.496;3.710;2022-12-20T16:38:54;14.50;88.40
61021;DHT22;66055;43.496;3.710;2022-12-20T16:41:25;14.50;88.30
61021;DHT22;66055;43.496;3.710;2022-12-20T16:43:53;14.50;88.20
61021;DHT22;66055;43.496;3.710;2022-12-20T16:46:21;14.50;88.30
61021;DHT22;66055;43.496;3.710;2022-12-20T16:48:46;14.50;88.40
61021;DHT22;66055;43.496;3.710;2022-12-20T16:51:26;14.50;88.40
61021;DHT22;66055;43.496;3.710;2022-12-20T16:53:57;14.50;88.40
61021;DHT22;66055;43.496;3.710;2022-12-20T16:56:25;14.50;88.30
61021;DHT22;66055;43.496;3.710;2022-12-20T16:58:51;14.50;88.30
61021;DHT22;66055;43.496;3.710;2022-12-20T17:01:22;14.50;88.20
61021;DHT22;66055;43.496;3.710;2022-12-20T17:03:49;14.60;88.40
61021;DHT22;66055;43.496;3.710;2022-12-20T17:06:16;14.50;88.40
61021;DHT22;66055;43.496;3.710;2022-12-20T17:08:43;14.50;88.60
61021;DHT22;66055;43.496;3.710;2022-12-20T17:11:18;14.50;88.60
61021;DHT22;66055;43.496;3.710;2022-12-20T17:13:45;14.50;88.40
61021;DHT22;66055;43.496;3.710;2022-12-20T17:16:12;14.50;88.50
61021;DHT22;66055;43.496;3.710;2022-12-20T17:18:46;14.60;88.40
61021;DHT22;66055;43.496;3.710;2022-12-20T17:21:36;14.50;88.20
61021;DHT22;66055;43.496;3.710;2022-12-20T17:24:04;14.50;88.30
61021;DHT22;66055;43.496;3.710;2022-12-20T17:26:33;14.50;88.20
61021;DHT22;66055;43.496;3.710;2022-12-20T17:28:59;14.50;88.30
61021;DHT22;66055;43.496;3.710;2022-12-20T17:31:34;14.50;88.30
61021;DHT22;66055;43.496;3.710;2022-12-20T17:34:18;14.50;88.40
61021;DHT22;66055;43.496;3.710;2022-12-20T17:36:45;14.50;88.60
61021;DHT22;66055;43.496;3.710;2022-12-20T17:39:11;14.50;88.60
61021;DHT22;66055;43.496;3.710;2022-12-20T17:41:37;14.50;88.40